createdAt,value
2017-08-03T00:01:04.801Z,73.60
2017-08-03T00:03:32.954Z,74.00
2017-08-03T00:06:01.111Z,73.50
2017-08-03T00:08:29.282Z,74.40
2017-08-03T00:10:57.426Z,74.40
2017-08-03T00:13:25.567Z,74.60
2017-08-03T00:15:53.771Z,74.00
2017-08-03T00:18:21.937Z,74.30
2017-08-03T00:20:50.625Z,74.50
2017-08-03T00:23:18.803Z,74.50
2017-08-03T00:25:46.975Z,74.60
2017-08-03T00:28:15.122Z,75.70
2017-08-03T00:30:43.944Z,77.00
2017-08-03T00:33:12.086Z,77.00
2017-08-03T00:35:40.233Z,77.00
2017-08-03T00:38:08.419Z,78.00
2017-08-03T00:40:36.585Z,77.80
2017-08-03T00:43:04.730Z,77.60
2017-08-03T00:45:33.702Z,78.80
2017-08-03T00:48:02.641Z,79.60
2017-08-03T00:50:30.794Z,79.10
2017-08-03T00:52:59.749Z,78.90
2017-08-03T00:55:27.917Z,78.80
2017-08-03T00:57:56.083Z,78.80
2017-08-03T01:00:24.290Z,79.30
2017-08-03T01:02:52.438Z,78.60
2017-08-03T01:05:20.585Z,78.30
2017-08-03T01:07:48.858Z,78.80
2017-08-03T01:10:17.006Z,79.10
2017-08-03T01:12:45.914Z,80.20
2017-08-03T01:15:14.110Z,80.20
2017-08-03T01:17:42.285Z,80.20
2017-08-03T01:20:10.442Z,80.80
2017-08-03T01:22:38.641Z,81.20
2017-08-03T01:25:06.789Z,81.60
2017-08-03T01:27:34.956Z,82.20
2017-08-03T01:30:03.164Z,82.50
2017-08-03T01:32:31.349Z,83.10
2017-08-03T01:34:59.512Z,83.30
2017-08-03T01:37:27.710Z,83.80
2017-08-03T01:39:55.869Z,85.30
2017-08-03T01:42:24.018Z,85.70
2017-08-03T01:44:52.216Z,86.20
2017-08-03T01:47:20.361Z,86.00
2017-08-03T01:49:48.514Z,86.30
2017-08-03T01:52:17.874Z,88.70
2017-08-03T01:54:46.025Z,88.60
2017-08-03T01:57:14.175Z,88.50
2017-08-03T01:59:43.113Z,89.60
2017-08-03T02:02:11.266Z,89.60
2017-08-03T02:04:39.441Z,89.00
2017-08-03T02:07:07.638Z,89.20
2017-08-03T02:09:35.802Z,88.40
2017-08-03T02:12:03.964Z,87.50
2017-08-03T02:14:32.162Z,87.50
2017-08-03T02:17:00.312Z,87.90
2017-08-03T02:19:28.458Z,88.60
2017-08-03T02:21:57.109Z,88.40
2017-08-03T02:24:25.260Z,88.70
2017-08-03T02:26:53.438Z,89.20
2017-08-03T02:29:21.618Z,89.40
2017-08-03T02:31:49.790Z,90.10
2017-08-03T02:34:17.939Z,90.30
2017-08-03T02:36:46.121Z,90.30
2017-08-03T02:39:14.293Z,90.40
2017-08-03T02:41:42.447Z,90.70
2017-08-03T02:44:10.627Z,91.00
2017-08-03T02:46:38.776Z,91.40
2017-08-03T02:49:08.472Z,91.80
2017-08-03T02:51:36.654Z,91.50
2017-08-03T02:54:04.806Z,91.60
2017-08-03T02:56:32.984Z,91.40
2017-08-03T02:59:01.520Z,91.50
2017-08-03T03:01:29.690Z,91.50
2017-08-03T03:03:57.857Z,91.70
2017-08-03T03:06:26.926Z,91.90
2017-08-03T03:08:55.074Z,91.80
2017-08-03T03:11:23.240Z,91.90
2017-08-03T03:13:51.443Z,92.00
2017-08-03T03:16:19.590Z,92.00
2017-08-03T03:18:47.760Z,91.60
2017-08-03T03:21:15.937Z,91.90
2017-08-03T03:23:44.100Z,91.80
2017-08-03T03:26:12.269Z,91.90
2017-08-03T03:28:40.901Z,92.00
2017-08-03T03:31:09.075Z,92.50
2017-08-03T03:33:37.241Z,92.40
2017-08-03T03:36:05.449Z,92.70
2017-08-03T03:38:34.383Z,93.10
2017-08-03T03:41:02.534Z,93.10
2017-08-03T03:43:30.736Z,93.30
2017-08-03T03:45:58.883Z,93.30
2017-08-03T03:48:27.053Z,93.00
2017-08-03T03:50:55.490Z,93.00
2017-08-03T03:53:23.645Z,93.10
2017-08-03T03:55:51.799Z,93.50
2017-08-03T03:58:19.996Z,93.60
2017-08-03T04:00:48.154Z,93.50
2017-08-03T04:03:16.326Z,93.40
2017-08-03T04:05:44.542Z,93.50
2017-08-03T04:08:13.463Z,93.90
2017-08-03T04:10:41.643Z,93.90
2017-08-03T04:13:09.840Z,93.80
2017-08-03T04:15:38.010Z,93.70
2017-08-03T04:18:06.154Z,93.60
2017-08-03T04:20:34.339Z,93.80
2017-08-03T04:23:02.489Z,93.90
2017-08-03T04:25:31.401Z,94.20
2017-08-03T04:27:59.595Z,94.10
2017-08-03T04:30:27.762Z,94.30
2017-08-03T04:32:55.932Z,94.20
2017-08-03T04:35:24.146Z,94.50
2017-08-03T04:37:52.320Z,94.40
2017-08-03T04:40:20.475Z,94.60
2017-08-03T04:42:48.669Z,94.90
2017-08-03T04:45:16.817Z,95.10
2017-08-03T04:47:44.970Z,94.90
2017-08-03T04:50:13.151Z,95.10
2017-08-03T04:52:41.302Z,95.10
2017-08-03T04:55:10.214Z,95.20
2017-08-03T04:57:38.419Z,95.20
2017-08-03T05:00:06.578Z,95.60
2017-08-03T05:02:34.729Z,95.20
2017-08-03T05:05:02.939Z,95.20
2017-08-03T05:07:31.109Z,95.00
2017-08-03T05:09:59.286Z,95.40
2017-08-03T05:12:27.475Z,95.40
2017-08-03T05:14:55.641Z,95.40
2017-08-03T05:17:23.816Z,95.50
2017-08-03T05:19:52.022Z,95.30
2017-08-03T05:22:20.177Z,95.10
2017-08-03T05:24:48.321Z,95.40
2017-08-03T05:27:16.509Z,95.30
2017-08-03T05:29:44.680Z,95.20
2017-08-03T05:32:12.850Z,95.30
2017-08-03T05:34:41.055Z,95.20
2017-08-03T05:37:09.229Z,95.10
2017-08-03T05:39:37.405Z,95.60
2017-08-03T05:42:05.613Z,95.60
2017-08-03T05:44:34.533Z,95.30
2017-08-03T05:47:02.704Z,95.30
2017-08-03T05:49:30.878Z,95.00
2017-08-03T05:51:59.052Z,95.20
2017-08-03T05:54:27.198Z,95.40
2017-08-03T05:56:56.169Z,95.30
2017-08-03T05:59:24.336Z,95.20
2017-08-03T06:01:52.484Z,95.30
2017-08-03T06:04:20.658Z,95.20
2017-08-03T06:06:48.825Z,95.00
2017-08-03T06:09:16.980Z,94.60
2017-08-03T06:11:45.576Z,94.60
2017-08-03T06:14:13.735Z,94.90
2017-08-03T06:16:41.913Z,95.10
2017-08-03T06:19:10.097Z,94.70
2017-08-03T06:21:38.254Z,94.70
2017-08-03T06:24:06.419Z,94.40
2017-08-03T06:26:35.357Z,94.40
2017-08-03T06:29:03.521Z,94.40
2017-08-03T06:31:31.666Z,94.40
2017-08-03T06:34:00.630Z,94.10
2017-08-03T06:36:28.777Z,94.00
2017-08-03T06:38:56.949Z,94.10
2017-08-03T06:41:25.559Z,94.20
2017-08-03T06:43:53.725Z,94.20
2017-08-03T06:46:21.892Z,94.30
2017-08-03T06:48:50.073Z,94.70
2017-08-03T06:51:18.218Z,94.50
2017-08-03T06:53:47.304Z,95.10
2017-08-03T06:56:15.487Z,94.80
2017-08-03T06:58:43.641Z,95.00
2017-08-03T07:01:12.577Z,95.10
2017-08-03T07:03:40.763Z,95.10
2017-08-03T07:06:08.998Z,95.20
2017-08-03T07:08:37.909Z,94.50
2017-08-03T07:11:06.103Z,94.40
2017-08-03T07:13:34.279Z,95.00
2017-08-03T07:16:02.437Z,94.50
2017-08-03T07:18:30.640Z,94.90
2017-08-03T07:20:58.795Z,94.90
2017-08-03T07:23:26.965Z,94.90
2017-08-03T07:25:55.146Z,95.10
2017-08-03T07:28:23.300Z,94.80
2017-08-03T07:30:51.468Z,94.30
2017-08-03T07:33:19.648Z,94.00
2017-08-03T07:35:47.802Z,93.90
2017-08-03T07:38:15.968Z,94.20
2017-08-03T07:40:44.929Z,93.60
2017-08-03T07:43:13.108Z,93.60
2017-08-03T07:45:41.276Z,93.80
2017-08-03T07:48:09.475Z,94.10
2017-08-03T07:50:38.414Z,93.70
2017-08-03T07:53:06.589Z,93.70
2017-08-03T07:55:34.788Z,93.80
2017-08-03T07:58:02.966Z,93.70
2017-08-03T08:00:31.136Z,93.40
2017-08-03T08:02:59.316Z,93.00
2017-08-03T08:05:27.466Z,92.60
2017-08-03T08:07:55.626Z,92.10
2017-08-03T08:10:23.828Z,92.20
2017-08-03T08:12:52.002Z,92.20
2017-08-03T08:15:20.165Z,92.40
2017-08-03T08:17:48.357Z,91.50
2017-08-03T08:20:16.511Z,90.90
2017-08-03T08:22:44.684Z,89.00
2017-08-03T08:25:12.881Z,86.00
2017-08-03T08:27:41.023Z,85.30
2017-08-03T08:30:09.169Z,86.60
2017-08-03T08:32:38.125Z,86.00
2017-08-03T08:35:06.272Z,86.00
2017-08-03T08:37:34.440Z,86.00
2017-08-03T08:40:02.629Z,84.60
2017-08-03T08:42:30.793Z,82.10
2017-08-03T08:44:58.934Z,82.50
2017-08-03T08:47:27.887Z,80.60
2017-08-03T08:49:56.030Z,80.50
2017-08-03T08:52:24.180Z,77.00
2017-08-03T08:54:52.365Z,70.30
2017-08-03T08:57:20.537Z,64.30
2017-08-03T08:59:48.686Z,56.90
2017-08-03T09:02:17.651Z,54.60
2017-08-03T09:04:45.812Z,54.60
2017-08-03T09:07:13.976Z,53.20
2017-08-03T09:09:42.164Z,52.60
2017-08-03T09:12:10.329Z,53.70
2017-08-03T09:14:38.497Z,55.00
2017-08-03T09:17:06.685Z,55.40
2017-08-03T09:19:34.852Z,56.60
2017-08-03T09:22:03.026Z,58.60
2017-08-03T09:24:31.225Z,59.80
2017-08-03T09:26:59.380Z,59.80
2017-08-03T09:29:27.542Z,59.10
2017-08-03T09:31:55.733Z,58.00
2017-08-03T09:34:23.901Z,57.30
2017-08-03T09:36:52.072Z,54.30
2017-08-03T09:39:20.273Z,50.80
2017-08-03T09:41:48.439Z,50.20
2017-08-03T09:44:16.585Z,50.00
2017-08-03T09:46:44.783Z,51.70
2017-08-03T09:49:12.947Z,52.60
2017-08-03T09:51:41.103Z,53.30
2017-08-03T09:54:09.298Z,52.70
2017-08-03T09:56:37.461Z,52.80
2017-08-03T09:59:05.629Z,53.60
2017-08-03T10:01:33.810Z,55.50
2017-08-03T10:04:01.961Z,54.90
2017-08-03T10:06:30.129Z,52.90
2017-08-03T10:08:58.310Z,52.50
2017-08-03T10:11:26.484Z,53.50
2017-08-03T10:13:54.651Z,55.30
2017-08-03T10:16:22.827Z,57.00
2017-08-03T10:18:50.986Z,58.90
2017-08-03T10:21:19.922Z,60.40
2017-08-03T10:23:48.125Z,60.80
2017-08-03T10:26:16.270Z,61.00
2017-08-03T10:28:44.433Z,61.20
2017-08-03T10:31:12.614Z,61.70
2017-08-03T10:33:40.842Z,61.20
2017-08-03T10:36:09.010Z,60.80
2017-08-03T10:38:37.198Z,60.10
2017-08-03T10:41:06.137Z,59.40
2017-08-03T10:43:34.309Z,59.30
2017-08-03T10:46:02.496Z,58.00
2017-08-03T10:48:30.657Z,58.20
2017-08-03T10:50:58.833Z,57.00
2017-08-03T10:53:27.029Z,54.60
2017-08-03T10:55:55.200Z,51.50
2017-08-03T10:58:23.345Z,47.10
2017-08-03T11:00:51.545Z,42.70
2017-08-03T11:03:19.697Z,42.90
2017-08-03T11:05:47.863Z,42.70
2017-08-03T11:08:16.035Z,40.20
2017-08-03T11:10:44.197Z,39.30
2017-08-03T11:13:12.368Z,36.70
2017-08-03T11:15:40.562Z,38.70
2017-08-03T11:18:08.732Z,42.50
2017-08-03T11:20:36.901Z,44.60
2017-08-03T11:23:05.095Z,45.70
2017-08-03T11:25:33.265Z,45.60
2017-08-03T11:28:01.416Z,42.50
2017-08-03T11:30:29.613Z,42.70
2017-08-03T11:32:57.782Z,39.00
2017-08-03T11:35:25.934Z,37.70
2017-08-03T11:37:54.128Z,35.80
2017-08-03T11:40:23.038Z,31.20
2017-08-03T11:42:51.202Z,31.10
2017-08-03T11:45:19.408Z,33.00
2017-08-03T11:47:47.562Z,34.20
2017-08-03T11:50:15.736Z,34.30
2017-08-03T11:52:43.911Z,33.60
2017-08-03T11:55:12.076Z,33.30
2017-08-03T11:57:40.244Z,32.30
2017-08-03T12:00:08.415Z,32.90
2017-08-03T12:02:36.581Z,34.00
2017-08-03T12:05:04.752Z,35.60
2017-08-03T12:07:33.704Z,37.70
2017-08-03T12:10:01.859Z,37.60
2017-08-03T12:12:30.034Z,38.60
2017-08-03T12:14:58.207Z,39.60
2017-08-03T12:17:26.371Z,40.10
2017-08-03T12:19:54.538Z,40.10
2017-08-03T12:22:22.730Z,40.60
2017-08-03T12:24:50.886Z,40.80
2017-08-03T12:27:19.043Z,41.80
2017-08-03T12:29:48.005Z,43.00
2017-08-03T12:32:16.159Z,42.90
2017-08-03T12:34:44.330Z,43.50
2017-08-03T12:37:12.537Z,44.40
2017-08-03T12:39:40.689Z,45.50
2017-08-03T12:42:08.838Z,46.30
2017-08-03T12:44:37.021Z,46.50
2017-08-03T12:47:05.173Z,47.40
2017-08-03T12:49:33.324Z,47.70
2017-08-03T12:52:02.269Z,49.10
2017-08-03T12:54:30.419Z,49.10
2017-08-03T12:56:58.588Z,49.00
2017-08-03T12:59:26.787Z,49.30
2017-08-03T13:01:54.963Z,50.20
2017-08-03T13:04:23.115Z,50.70
2017-08-03T13:06:51.317Z,50.80
2017-08-03T13:09:19.492Z,51.90
2017-08-03T13:11:47.658Z,52.00
2017-08-03T13:14:15.858Z,52.10
2017-08-03T13:16:44.031Z,52.60
2017-08-03T13:19:12.186Z,52.20
2017-08-03T13:21:40.361Z,52.30
2017-08-03T13:24:08.510Z,52.00
2017-08-03T13:26:36.678Z,52.10
2017-08-03T13:29:04.875Z,51.10
2017-08-03T13:31:33.039Z,50.70
2017-08-03T13:34:01.207Z,51.20
2017-08-03T13:36:29.386Z,51.10
2017-08-03T13:38:57.552Z,51.80
2017-08-03T13:41:25.718Z,51.90
2017-08-03T13:43:54.684Z,51.10
2017-08-03T13:46:22.834Z,51.10
2017-08-03T13:48:50.994Z,50.40
2017-08-03T13:51:19.179Z,50.30
2017-08-03T13:53:47.341Z,50.00
2017-08-03T13:56:15.489Z,49.60
2017-08-03T13:58:43.689Z,49.70
2017-08-03T14:01:11.835Z,48.30
2017-08-03T14:03:39.992Z,48.90
2017-08-03T14:06:08.938Z,50.40
2017-08-03T14:08:37.094Z,50.10
2017-08-03T14:11:05.262Z,51.80
2017-08-03T14:13:33.464Z,53.70
2017-08-03T14:16:01.632Z,54.50
2017-08-03T14:18:29.794Z,55.50
2017-08-03T14:20:57.988Z,56.20
2017-08-03T14:23:26.139Z,55.80
2017-08-03T14:25:54.298Z,56.10
2017-08-03T14:28:23.245Z,56.40
2017-08-03T14:30:51.401Z,56.30
2017-08-03T14:33:19.599Z,57.10
2017-08-03T14:35:47.775Z,57.50
2017-08-03T14:38:16.700Z,64.40
2017-08-03T14:40:45.611Z,66.50
2017-08-03T14:43:13.817Z,66.50
2017-08-03T14:45:41.989Z,68.00
2017-08-03T14:48:10.135Z,69.90
2017-08-03T14:50:38.318Z,69.90
2017-08-03T14:53:06.513Z,69.30
2017-08-03T14:55:34.677Z,70.30
2017-08-03T14:58:02.864Z,68.80
2017-08-03T15:00:31.007Z,67.80
2017-08-03T15:02:59.169Z,66.80
2017-08-03T15:05:28.114Z,65.30
2017-08-03T15:07:56.296Z,65.30
2017-08-03T15:10:24.480Z,63.50
2017-08-03T15:12:52.651Z,63.20
2017-08-03T15:15:20.795Z,62.30
2017-08-03T15:17:49.711Z,62.60
2017-08-03T15:20:17.901Z,62.50
2017-08-03T15:22:46.051Z,62.30
2017-08-03T15:25:14.238Z,61.30
2017-08-03T15:27:42.422Z,60.30
2017-08-03T15:30:10.568Z,60.30
2017-08-03T15:32:39.479Z,58.80
2017-08-03T15:35:07.655Z,58.70
2017-08-03T15:37:35.810Z,59.00
2017-08-03T15:40:04.718Z,55.90
2017-08-03T15:42:32.889Z,55.80
2017-08-03T15:45:01.050Z,53.60
2017-08-03T15:47:29.969Z,52.50
2017-08-03T15:49:58.164Z,52.50
2017-08-03T15:52:26.310Z,51.60
2017-08-03T15:54:54.474Z,51.10
2017-08-03T15:57:22.649Z,50.00
2017-08-03T15:59:50.791Z,50.80
2017-08-03T16:02:18.952Z,51.50
2017-08-03T16:04:47.139Z,51.10
2017-08-03T16:07:15.286Z,51.10
2017-08-03T16:09:43.437Z,51.30
2017-08-03T16:12:11.647Z,50.60
2017-08-03T16:14:39.798Z,49.50
2017-08-03T16:17:07.945Z,50.30
2017-08-03T16:19:36.123Z,50.00
2017-08-03T16:22:04.286Z,49.00
2017-08-03T16:24:33.202Z,48.90
2017-08-03T16:27:01.394Z,48.90
2017-08-03T16:29:29.564Z,49.10
2017-08-03T16:31:57.731Z,49.70
2017-08-03T16:34:25.915Z,48.90
2017-08-03T16:36:54.080Z,49.60
2017-08-03T16:39:22.246Z,49.20
2017-08-03T16:41:50.417Z,49.60
2017-08-03T16:44:18.586Z,49.50
2017-08-03T16:46:46.730Z,49.50
2017-08-03T16:49:14.909Z,49.70
2017-08-03T16:51:43.842Z,49.00
2017-08-03T16:54:12.010Z,49.00
2017-08-03T16:56:40.945Z,49.50
2017-08-03T16:59:09.112Z,49.50
2017-08-03T17:01:37.258Z,50.50
2017-08-03T17:04:05.465Z,50.90
2017-08-03T17:06:33.612Z,51.10
2017-08-03T17:09:01.766Z,51.10
2017-08-03T17:11:29.981Z,51.60
2017-08-03T17:13:58.145Z,51.60
2017-08-03T17:16:26.312Z,51.10
2017-08-03T17:18:54.504Z,51.00
2017-08-03T17:21:22.646Z,51.10
2017-08-03T17:23:50.786Z,51.40
2017-08-03T17:26:19.722Z,51.50
2017-08-03T17:28:47.874Z,51.40
2017-08-03T17:31:16.042Z,51.90
2017-08-03T17:33:44.996Z,49.90
2017-08-03T17:36:13.147Z,49.90
2017-08-03T17:38:41.294Z,50.50
2017-08-03T17:41:09.471Z,50.30
2017-08-03T17:43:37.618Z,50.10
2017-08-03T17:46:06.537Z,49.50
2017-08-03T17:48:34.728Z,49.40
2017-08-03T17:51:02.881Z,48.80
2017-08-03T17:53:31.049Z,48.60
2017-08-03T17:55:59.223Z,49.10
2017-08-03T17:58:28.153Z,48.70
2017-08-03T18:00:56.321Z,48.70
2017-08-03T18:03:24.515Z,49.00
2017-08-03T18:05:52.662Z,49.10
2017-08-03T18:08:20.833Z,48.80
2017-08-03T18:10:49.005Z,49.00
2017-08-03T18:13:17.176Z,49.00
2017-08-03T18:15:45.342Z,49.20
2017-08-03T18:18:13.534Z,49.40
2017-08-03T18:20:41.682Z,49.70
2017-08-03T18:23:10.599Z,49.60
2017-08-03T18:25:38.789Z,49.60
2017-08-03T18:28:06.939Z,49.40
2017-08-03T18:30:35.092Z,49.20
2017-08-03T18:33:04.038Z,49.50
2017-08-03T18:35:32.205Z,49.50
2017-08-03T18:38:00.356Z,50.10
2017-08-03T18:40:28.541Z,49.70
2017-08-03T18:42:56.683Z,49.70
2017-08-03T18:45:25.596Z,50.20
2017-08-03T18:47:53.771Z,50.20
2017-08-03T18:50:21.915Z,49.80
2017-08-03T18:52:50.850Z,50.50
2017-08-03T18:55:19.026Z,49.80
2017-08-03T18:57:47.198Z,49.90
2017-08-03T19:00:15.345Z,50.70
2017-08-03T19:02:44.289Z,50.30
2017-08-03T19:05:12.452Z,50.20
2017-08-03T19:07:40.602Z,50.50
2017-08-03T19:10:08.777Z,50.50
2017-08-03T19:12:36.924Z,50.20
2017-08-03T19:15:05.837Z,49.70
2017-08-03T19:17:34.029Z,49.70
2017-08-03T19:20:02.183Z,50.40
2017-08-03T19:22:30.779Z,50.40
2017-08-03T19:24:58.952Z,50.00
2017-08-03T19:27:27.098Z,50.40
2017-08-03T19:29:56.024Z,50.00
2017-08-03T19:32:24.214Z,50.00
2017-08-03T19:34:52.389Z,49.80
2017-08-03T19:37:20.558Z,50.20
2017-08-03T19:39:48.727Z,50.20
2017-08-03T19:42:16.893Z,50.20
2017-08-03T19:44:45.039Z,50.20
2017-08-03T19:47:14.002Z,50.40
2017-08-03T19:49:42.166Z,50.30
2017-08-03T19:52:10.312Z,50.40
2017-08-03T19:54:38.482Z,50.20
2017-08-03T19:57:06.639Z,50.40
2017-08-03T19:59:34.805Z,50.50
2017-08-03T20:02:03.749Z,50.70
2017-08-03T20:04:31.912Z,50.70
2017-08-03T20:07:26.747Z,50.70
2017-08-03T20:10:00.806Z,50.20
2017-08-03T20:12:29.005Z,50.60
2017-08-03T20:14:57.173Z,50.20
2017-08-03T20:17:25.337Z,50.80
2017-08-03T20:19:53.528Z,50.70
2017-08-03T20:22:21.696Z,50.20
2017-08-03T20:24:49.877Z,50.30
2017-08-03T20:27:18.072Z,50.50
2017-08-03T20:29:46.224Z,50.60
2017-08-03T20:32:14.374Z,51.10
2017-08-03T20:37:15.937Z,50.70
2017-08-03T20:39:44.138Z,51.20
2017-08-03T20:42:12.277Z,51.70
2017-08-03T20:44:41.191Z,51.90
2017-08-03T20:47:09.380Z,51.80
2017-08-03T20:49:37.527Z,52.00
2017-08-03T20:52:05.694Z,51.60
2017-08-03T20:54:34.653Z,51.90
2017-08-03T20:57:02.820Z,51.80
2017-08-03T20:59:30.966Z,52.10
2017-08-03T21:01:59.164Z,51.50
2017-08-03T21:04:27.329Z,51.80
2017-08-03T21:06:55.497Z,51.70
2017-08-03T21:09:23.699Z,51.50
2017-08-03T21:11:51.864Z,51.60
2017-08-03T21:14:20.029Z,51.80
2017-08-03T21:16:48.221Z,52.00
2017-08-03T21:19:16.362Z,52.10
2017-08-03T21:21:44.511Z,51.90
2017-08-03T21:24:13.506Z,51.40
2017-08-03T21:26:41.677Z,51.30
2017-08-03T21:29:09.826Z,51.70
2017-08-03T21:31:37.995Z,51.30
2017-08-03T21:34:06.161Z,51.40
2017-08-03T21:36:34.313Z,51.50
2017-08-03T21:39:02.485Z,51.70
2017-08-03T21:41:30.659Z,52.10
2017-08-03T21:43:58.825Z,51.80
2017-08-03T21:46:27.025Z,51.30
2017-08-03T21:48:55.174Z,51.10
2017-08-03T21:51:23.323Z,51.30
2017-08-03T21:53:52.277Z,50.80
2017-08-03T21:56:20.423Z,50.70
2017-08-03T21:58:48.593Z,51.50
2017-08-03T22:01:16.768Z,51.10
2017-08-03T22:03:44.911Z,51.60
2017-08-03T22:06:13.821Z,52.50
2017-08-03T22:08:41.990Z,52.50
2017-08-03T22:11:10.153Z,52.60
2017-08-03T22:13:39.069Z,52.70
2017-08-03T22:16:07.269Z,52.60
2017-08-03T22:18:35.440Z,52.90
2017-08-03T22:21:03.609Z,53.20
2017-08-03T22:23:32.194Z,53.70
2017-08-03T22:26:00.341Z,53.70
2017-08-03T22:28:28.481Z,53.80
2017-08-03T22:30:56.658Z,53.90
2017-08-03T22:33:25.571Z,54.00
2017-08-03T22:35:53.737Z,54.20
2017-08-03T22:38:21.906Z,54.50
2017-08-03T22:40:50.847Z,54.40
2017-08-03T22:43:19.008Z,54.40
2017-08-03T22:45:47.209Z,54.60
2017-08-03T22:48:15.354Z,54.90
2017-08-03T22:50:43.494Z,54.70
2017-08-03T22:53:12.746Z,54.60
2017-08-03T22:55:40.890Z,54.60
2017-08-03T22:58:09.052Z,54.60
2017-08-03T23:00:38.021Z,55.30
2017-08-03T23:03:06.229Z,55.30
2017-08-03T23:05:34.383Z,55.50
2017-08-03T23:08:03.339Z,56.20
2017-08-03T23:10:31.481Z,56.20
2017-08-03T23:12:59.643Z,56.30
2017-08-03T23:15:27.815Z,56.60
2017-08-03T23:17:56.741Z,56.80
2017-08-03T23:20:24.895Z,56.80
2017-08-03T23:22:53.091Z,57.10
2017-08-03T23:25:21.242Z,57.10
2017-08-03T23:27:49.410Z,57.80
2017-08-03T23:30:17.614Z,57.70
2017-08-03T23:32:46.482Z,57.80
2017-08-03T23:35:14.625Z,58.00
2017-08-03T23:37:42.820Z,58.30
2017-08-03T23:40:10.988Z,58.10
2017-08-03T23:42:39.922Z,58.20
2017-08-03T23:45:08.116Z,58.20
2017-08-03T23:47:36.278Z,57.50
2017-08-03T23:50:04.448Z,57.60
2017-08-03T23:52:32.626Z,57.20
2017-08-03T23:55:00.770Z,57.40
2017-08-03T23:57:28.935Z,57.00
2017-08-03T23:59:57.124Z,57.10
